createdAt,value
2024-03-08T00:00:15.023Z,100679.77
2024-03-08T00:02:44.331Z,100677.67
2024-03-08T00:05:12.529Z,100680.49
2024-03-08T00:07:40.479Z,100678.90
2024-03-08T00:10:12.716Z,100678.83
2024-03-08T00:12:47.848Z,100678.20
2024-03-08T00:15:18.272Z,100680.02
2024-03-08T00:17:47.287Z,100681.34
2024-03-08T00:20:15.609Z,100674.79
2024-03-08T00:22:43.615Z,100675.80
2024-03-08T00:25:11.624Z,100671.09
2024-03-08T00:27:45.118Z,100672.95
2024-03-08T00:30:14.636Z,100669.22
2024-03-08T00:32:42.646Z,100671.33
2024-03-08T00:35:11.421Z,100668.26
2024-03-08T00:37:39.032Z,100662.59
2024-03-08T00:40:08.415Z,100655.77
2024-03-08T00:42:36.180Z,100656.85
2024-03-08T00:45:04.214Z,100655.48
2024-03-08T00:47:31.901Z,100655.51
2024-03-08T00:49:59.550Z,100653.27
2024-03-08T00:52:27.277Z,100648.89
2024-03-08T00:54:54.821Z,100647.70
2024-03-08T00:57:23.225Z,100649.42
2024-03-08T00:59:52.251Z,100649.20
2024-03-08T01:02:24.295Z,100650.22
2024-03-08T01:04:55.420Z,100645.29
2024-03-08T01:07:26.452Z,100645.07
2024-03-08T01:09:56.808Z,100640.63
2024-03-08T01:12:27.474Z,100640.76
2024-03-08T01:14:56.418Z,100641.05
2024-03-08T01:17:27.579Z,100639.63
2024-03-08T01:19:57.817Z,100634.14
2024-03-08T01:22:29.665Z,100634.29
2024-03-08T01:24:59.017Z,100631.80
2024-03-08T01:27:29.493Z,100629.65
2024-03-08T01:30:01.552Z,100632.23
2024-03-08T01:32:32.040Z,100628.17
2024-03-08T01:35:01.515Z,100626.03
2024-03-08T01:37:31.337Z,100625.43
2024-03-08T01:40:02.540Z,100625.73
2024-03-08T01:42:33.085Z,100623.58
2024-03-08T01:45:02.544Z,100621.29
2024-03-08T01:47:34.647Z,100617.02
2024-03-08T01:50:05.010Z,100613.81
2024-03-08T01:52:36.556Z,100611.52
2024-03-08T01:55:08.846Z,100610.44
2024-03-08T01:57:39.620Z,100608.50
2024-03-08T02:08:15.057Z,100604.88
2024-03-08T02:10:44.678Z,100602.91
2024-03-08T02:13:12.247Z,100603.95
2024-03-08T02:16:02.228Z,100599.48
2024-03-08T02:18:30.242Z,100598.45
2024-03-08T02:21:00.726Z,100600.40
2024-03-08T02:23:27.826Z,100599.73
2024-03-08T02:25:55.724Z,100600.30
2024-03-08T02:28:22.684Z,100600.86
2024-03-08T02:30:51.164Z,100605.47
2024-03-08T02:33:18.788Z,100597.67
2024-03-08T02:35:47.716Z,100598.08
2024-03-08T02:38:19.117Z,100599.55
2024-03-08T02:40:49.900Z,100593.86
2024-03-08T02:43:18.201Z,100590.95
2024-03-08T02:45:48.214Z,100587.70
2024-03-08T02:48:17.037Z,100588.33
2024-03-08T02:50:44.998Z,100589.09
2024-03-08T02:53:12.420Z,100586.33
2024-03-08T02:55:39.881Z,100581.27
2024-03-08T02:58:09.487Z,100580.58
2024-03-08T03:00:37.115Z,100579.80
2024-03-08T03:03:04.397Z,100584.89
2024-03-08T03:05:31.509Z,100583.39
2024-03-08T03:07:58.909Z,100579.42
2024-03-08T03:10:26.469Z,100580.20
2024-03-08T03:12:53.623Z,100580.35
2024-03-08T03:15:20.178Z,100575.39
2024-03-08T03:17:48.551Z,100568.89
2024-03-08T03:20:15.702Z,100567.11
2024-03-08T03:22:42.527Z,100567.16
2024-03-08T03:25:10.416Z,100566.41
2024-03-08T03:27:37.486Z,100562.32
2024-03-08T03:30:21.463Z,100565.22
2024-03-08T03:32:55.315Z,100564.98
2024-03-08T03:35:23.180Z,100567.95
2024-03-08T03:38:03.081Z,100567.98
2024-03-08T03:40:30.313Z,100566.80
2024-03-08T03:42:57.041Z,100567.55
2024-03-08T03:45:24.635Z,100567.05
2024-03-08T03:47:52.516Z,100564.68
2024-03-08T03:50:19.786Z,100565.46
2024-03-08T03:52:47.480Z,100567.38
2024-03-08T03:55:15.236Z,100564.73
2024-03-08T03:57:42.181Z,100561.98
2024-03-08T04:00:12.662Z,100562.66
2024-03-08T04:02:44.701Z,100566.99
2024-03-08T04:05:11.620Z,100566.24
2024-03-08T04:07:38.777Z,100563.26
2024-03-08T04:10:06.966Z,100563.52
2024-03-08T04:12:34.868Z,100560.40
2024-03-08T04:15:02.136Z,100563.16
2024-03-08T04:17:29.249Z,100557.98
2024-03-08T04:19:56.372Z,100557.08
2024-03-08T04:22:23.251Z,100557.77
2024-03-08T04:24:49.925Z,100551.13
2024-03-08T04:27:16.741Z,100547.64
2024-03-08T04:29:43.598Z,100547.96
2024-03-08T04:32:10.627Z,100547.92
2024-03-08T04:34:37.439Z,100547.77
2024-03-08T04:37:05.300Z,100551.73
2024-03-08T04:39:32.665Z,100541.59
2024-03-08T04:42:04.124Z,100539.68
2024-03-08T04:44:32.624Z,100533.52
2024-03-08T04:46:59.660Z,100538.02
2024-03-08T04:49:26.397Z,100536.26
2024-03-08T04:51:53.136Z,100532.90
2024-03-08T04:54:19.973Z,100532.60
2024-03-08T04:56:46.778Z,100535.65
2024-03-08T04:59:14.161Z,100532.68
2024-03-08T05:01:41.058Z,100530.13
2024-03-08T05:04:10.162Z,100530.86
2024-03-08T05:06:37.721Z,100532.48
2024-03-08T05:09:14.223Z,100535.41
2024-03-08T05:11:42.546Z,100541.35
2024-03-08T05:14:09.249Z,100537.60
2024-03-08T05:16:36.529Z,100534.29
2024-03-08T05:19:03.780Z,100531.10
2024-03-08T05:21:30.832Z,100524.67
2024-03-08T05:23:57.699Z,100523.75
2024-03-08T05:26:24.608Z,100523.15
2024-03-08T05:28:51.395Z,100525.33
2024-03-08T05:31:24.072Z,100522.95
2024-03-08T05:33:50.990Z,100522.55
2024-03-08T05:36:17.801Z,100515.22
2024-03-08T05:38:44.478Z,100507.31
2024-03-08T05:41:12.651Z,100506.77
2024-03-08T05:43:41.235Z,100505.23
2024-03-08T05:46:08.105Z,100503.67
2024-03-08T05:48:34.896Z,100501.53
2024-03-08T05:51:02.617Z,100497.55
2024-03-08T05:53:33.019Z,100496.39
2024-03-08T05:56:00.049Z,100497.30
2024-03-08T05:58:27.360Z,100492.44
2024-03-08T06:00:54.425Z,100492.59
2024-03-08T06:03:22.064Z,100487.73
2024-03-08T06:05:50.010Z,100482.70
2024-03-08T06:08:17.250Z,100482.20
2024-03-08T06:10:44.201Z,100488.09
2024-03-08T06:16:08.918Z,100486.02
2024-03-08T06:18:42.706Z,100482.60
2024-03-08T06:21:12.914Z,100478.00
2024-03-08T06:23:40.053Z,100479.45
2024-03-08T06:26:07.559Z,100484.34
2024-03-08T06:28:35.524Z,100483.30
2024-03-08T06:31:03.039Z,100486.29
2024-03-08T06:33:31.600Z,100484.11
2024-03-08T06:35:58.582Z,100481.02
2024-03-08T06:38:25.811Z,100484.94
2024-03-08T06:40:53.635Z,100481.95
2024-03-08T06:43:20.555Z,100479.55
2024-03-08T06:45:49.066Z,100479.02
2024-03-08T06:48:19.209Z,100473.90
2024-03-08T06:50:47.456Z,100468.33
2024-03-08T06:53:14.417Z,100471.77
2024-03-08T06:55:41.362Z,100471.05
2024-03-08T06:58:08.073Z,100472.16
2024-03-08T07:00:35.186Z,100467.98
2024-03-08T07:03:03.105Z,100463.86
2024-03-08T07:05:32.124Z,100461.07
2024-03-08T07:07:59.161Z,100457.94
2024-03-08T07:10:25.924Z,100462.13
2024-03-08T07:12:53.799Z,100459.43
2024-03-08T07:15:20.905Z,100456.00
2024-03-08T07:17:48.020Z,100452.14
2024-03-08T07:20:16.435Z,100453.69
2024-03-08T07:22:45.092Z,100450.02
2024-03-08T07:25:23.428Z,100449.86
2024-03-08T07:27:54.634Z,100452.52
2024-03-08T07:30:41.294Z,100448.70
2024-03-08T07:33:08.917Z,100450.05
2024-03-08T07:35:37.596Z,100452.66
2024-03-08T07:38:08.590Z,100454.55
2024-03-08T07:40:44.695Z,100451.98
2024-03-08T07:43:11.738Z,100452.35
2024-03-08T07:45:39.288Z,100450.56
2024-03-08T07:48:10.237Z,100449.73
2024-03-08T07:50:41.213Z,100442.71
2024-03-08T07:53:08.154Z,100442.08
2024-03-08T07:55:35.881Z,100439.42
2024-03-08T07:58:03.734Z,100441.20
2024-03-08T08:00:32.242Z,100440.64
2024-03-08T08:02:59.239Z,100439.99
2024-03-08T08:05:26.932Z,100436.08
2024-03-08T08:07:54.158Z,100435.73
2024-03-08T08:10:25.563Z,100437.19
2024-03-08T08:12:52.304Z,100435.89
2024-03-08T08:15:19.239Z,100432.41
2024-03-08T08:17:46.224Z,100436.79
2024-03-08T08:20:13.440Z,100435.43
2024-03-08T08:22:40.941Z,100427.56
2024-03-08T08:25:08.238Z,100431.13
2024-03-08T08:27:37.114Z,100428.91
2024-03-08T08:30:08.716Z,100418.73
2024-03-08T08:32:37.739Z,100417.58
2024-03-08T08:35:06.289Z,100412.11
2024-03-08T08:37:33.130Z,100412.80
2024-03-08T08:40:06.095Z,100410.30
2024-03-08T08:42:33.061Z,100414.71
2024-03-08T08:45:02.929Z,100414.19
2024-03-08T08:47:34.151Z,100414.42
2024-03-08T08:50:01.587Z,100408.06
2024-03-08T08:52:29.877Z,100404.40
2024-03-08T08:54:57.182Z,100404.95
2024-03-08T08:57:24.775Z,100407.61
2024-03-08T08:59:52.034Z,100400.96
2024-03-08T09:02:21.614Z,100398.13
2024-03-08T09:04:48.939Z,100394.02
2024-03-08T09:07:17.008Z,100387.94
2024-03-08T09:09:44.314Z,100384.18
2024-03-08T09:12:13.993Z,100383.13
2024-03-08T09:14:42.019Z,100386.73
2024-03-08T09:17:09.224Z,100384.26
2024-03-08T09:19:37.270Z,100378.70
2024-03-08T09:22:07.369Z,100381.80
2024-03-08T09:24:34.201Z,100376.73
2024-03-08T09:27:00.825Z,100378.46
2024-03-08T09:29:29.440Z,100373.13
2024-03-08T09:31:56.493Z,100371.43
2024-03-08T09:34:29.137Z,100371.00
2024-03-08T09:36:59.797Z,100365.54
2024-03-08T09:39:27.704Z,100364.01
2024-03-08T09:41:55.975Z,100357.42
2024-03-08T09:44:25.226Z,100352.71
2024-03-08T09:46:53.994Z,100352.60
2024-03-08T09:49:21.396Z,100349.20
2024-03-08T09:51:48.662Z,100353.39
2024-03-08T09:54:22.857Z,100354.49
2024-03-08T09:56:50.623Z,100348.63
2024-03-08T09:59:24.044Z,100351.83
2024-03-08T10:01:52.676Z,100345.34
2024-03-08T10:04:21.608Z,100349.13
2024-03-08T10:06:49.346Z,100342.25
2024-03-08T10:09:17.315Z,100341.28
2024-03-08T10:11:44.298Z,100337.36
2024-03-08T10:14:11.430Z,100338.12
2024-03-08T10:16:41.354Z,100338.35
2024-03-08T10:19:09.024Z,100330.71
2024-03-08T10:21:36.089Z,100334.21
2024-03-08T10:24:06.162Z,100329.39
2024-03-08T10:26:33.038Z,100322.89
2024-03-08T10:28:59.966Z,100326.83
2024-03-08T10:31:27.152Z,100328.31
2024-03-08T10:33:54.989Z,100324.67
2024-03-08T10:36:22.032Z,100315.80
2024-03-08T10:38:53.537Z,100315.23
2024-03-08T10:41:20.322Z,100308.52
2024-03-08T10:43:59.376Z,100311.55
2024-03-08T10:46:41.644Z,100303.05
2024-03-08T10:49:11.819Z,100308.39
2024-03-08T10:51:39.551Z,100302.43
2024-03-08T10:54:07.833Z,100299.73
2024-03-08T10:56:34.613Z,100302.18
2024-03-08T10:59:01.748Z,100295.85
2024-03-08T11:01:30.596Z,100291.89
2024-03-08T11:03:57.703Z,100285.45
2024-03-08T11:06:37.001Z,100287.83
2024-03-08T11:09:14.151Z,100277.88
2024-03-08T11:11:43.319Z,100280.27
2024-03-08T11:14:46.886Z,100279.35
2024-03-08T11:17:17.384Z,100275.77
2024-03-08T11:19:49.577Z,100269.30
2024-03-08T11:22:27.606Z,100266.39
2024-03-08T11:24:58.329Z,100265.08
2024-03-08T11:27:32.061Z,100255.20
2024-03-08T11:30:15.239Z,100255.57
2024-03-08T11:32:46.877Z,100250.65
2024-03-08T11:35:21.028Z,100249.93
2024-03-08T11:37:48.727Z,100248.17
2024-03-08T11:40:19.990Z,100245.10
2024-03-08T11:42:52.128Z,100241.61
2024-03-08T11:45:21.937Z,100241.29
2024-03-08T11:47:49.970Z,100235.89
2024-03-08T11:50:19.186Z,100230.43
2024-03-08T11:52:46.584Z,100229.18
2024-03-08T11:55:13.453Z,100224.23
2024-03-08T11:57:40.550Z,100226.73
2024-03-08T12:00:08.758Z,100218.95
2024-03-08T12:02:38.382Z,100216.69
2024-03-08T12:05:10.878Z,100217.81
2024-03-08T12:07:37.924Z,100212.50
2024-03-08T12:10:25.551Z,100210.90
2024-03-08T12:12:59.825Z,100203.05
2024-03-08T12:15:27.995Z,100207.85
2024-03-08T12:17:56.173Z,100201.05
2024-03-08T12:20:26.588Z,100196.33
2024-03-08T12:22:54.756Z,100197.32
2024-03-08T12:25:21.967Z,100193.55
2024-03-08T12:27:49.076Z,100193.46
2024-03-08T12:30:29.473Z,100188.13
2024-03-08T12:32:58.054Z,100191.32
2024-03-08T12:35:26.912Z,100192.11
2024-03-08T12:37:55.333Z,100181.39
2024-03-08T12:40:29.365Z,100181.48
2024-03-08T12:42:56.770Z,100181.44
2024-03-08T12:45:24.758Z,100173.33
2024-03-08T12:47:55.389Z,100178.52
2024-03-08T12:50:23.072Z,100170.41
2024-03-08T12:52:52.373Z,100169.69
2024-03-08T12:55:20.900Z,100161.84
2024-03-08T12:57:49.244Z,100163.23
2024-03-08T13:00:24.234Z,100162.45
2024-03-08T13:02:52.155Z,100159.45
2024-03-08T13:05:19.109Z,100154.67
2024-03-08T13:07:46.852Z,100149.06
2024-03-08T13:10:16.984Z,100145.04
2024-03-08T13:12:43.998Z,100145.09
2024-03-08T13:15:20.762Z,100139.52
2024-03-08T13:17:49.022Z,100138.38
2024-03-08T13:20:25.277Z,100142.46
2024-03-08T13:23:00.864Z,100135.91
2024-03-08T13:25:27.904Z,100134.88
2024-03-08T13:27:57.231Z,100126.98
2024-03-08T13:30:27.354Z,100136.03
2024-03-08T13:32:57.367Z,100130.63
2024-03-08T13:35:27.917Z,100123.18
2024-03-08T13:37:54.835Z,100128.66
2024-03-08T13:40:21.956Z,100123.70
2024-03-08T13:42:52.033Z,100122.86
2024-03-08T13:45:23.139Z,100120.79
2024-03-08T13:47:53.714Z,100114.61
2024-03-08T13:50:24.136Z,100121.08
2024-03-08T13:52:55.506Z,100127.48
2024-03-08T13:55:24.146Z,100126.50
2024-03-08T13:57:54.167Z,100125.79
2024-03-08T14:00:26.351Z,100111.27
2024-03-08T14:02:54.555Z,100114.64
2024-03-08T14:05:22.026Z,100115.04
2024-03-08T14:07:49.829Z,100114.79
2024-03-08T14:10:20.550Z,100112.20
2024-03-08T14:12:50.378Z,100112.01
2024-03-08T14:15:17.503Z,100108.29
2024-03-08T14:17:47.279Z,100101.27
2024-03-08T14:20:14.049Z,100098.54
2024-03-08T14:22:40.896Z,100096.60
2024-03-08T14:25:17.517Z,100098.98
2024-03-08T14:27:45.704Z,100094.64
2024-03-08T14:30:13.716Z,100091.71
2024-03-08T14:32:42.284Z,100094.13
2024-03-08T14:35:11.843Z,100088.58
2024-03-08T14:37:38.632Z,100090.52
2024-03-08T14:40:06.488Z,100091.98
2024-03-08T14:42:33.838Z,100088.99
2024-03-08T14:45:00.789Z,100094.61
2024-03-08T14:47:27.708Z,100088.61
2024-03-08T14:49:56.327Z,100082.84
2024-03-08T14:52:28.968Z,100082.22
2024-03-08T14:54:56.613Z,100082.98
2024-03-08T14:57:23.403Z,100081.05
2024-03-08T14:59:50.861Z,100084.84
2024-03-08T15:02:19.756Z,100082.89
2024-03-08T15:05:02.027Z,100080.95
2024-03-08T15:07:31.557Z,100076.15
2024-03-08T15:09:58.378Z,100075.95
2024-03-08T15:12:26.701Z,100073.83
2024-03-08T15:14:55.671Z,100071.71
2024-03-08T15:17:23.550Z,100070.30
2024-03-08T15:19:53.141Z,100069.20
2024-03-08T15:22:24.522Z,100071.95
2024-03-08T15:24:52.472Z,100069.17
2024-03-08T15:27:19.528Z,100069.21
2024-03-08T15:29:49.728Z,100070.01
2024-03-08T15:32:22.992Z,100064.62
2024-03-08T15:34:51.092Z,100063.96
2024-03-08T15:37:18.160Z,100064.12
2024-03-08T15:39:46.346Z,100060.60
2024-03-08T15:42:13.159Z,100064.89
2024-03-08T15:44:41.963Z,100062.87
2024-03-08T15:47:13.334Z,100066.29
2024-03-08T15:49:40.188Z,100067.09
2024-03-08T15:52:06.992Z,100063.26
2024-03-08T15:54:34.066Z,100061.02
2024-03-08T15:57:03.438Z,100061.77
2024-03-08T15:59:34.381Z,100056.91
2024-03-08T16:02:01.860Z,100056.82
2024-03-08T16:04:30.507Z,100061.66
2024-03-08T16:06:57.450Z,100061.77
2024-03-08T16:09:26.062Z,100065.36
2024-03-08T16:11:54.298Z,100068.08
2024-03-08T16:14:21.388Z,100065.83
2024-03-08T16:16:49.170Z,100075.27
2024-03-08T16:19:16.211Z,100074.45
2024-03-08T16:21:44.410Z,100070.99
2024-03-08T16:24:11.353Z,100079.02
2024-03-08T16:26:38.275Z,100077.85
2024-03-08T16:29:05.619Z,100079.85
2024-03-08T16:31:32.797Z,100077.28
2024-03-08T16:33:59.866Z,100081.40
2024-03-08T16:36:27.906Z,100085.02
2024-03-08T16:38:54.749Z,100085.45
2024-03-08T16:41:21.946Z,100084.09
2024-03-08T16:43:49.954Z,100085.91
2024-03-08T16:46:17.211Z,100084.55
2024-03-08T16:48:44.380Z,100082.98
2024-03-08T16:51:11.772Z,100084.59
2024-03-08T16:53:41.387Z,100078.59
2024-03-08T16:56:12.050Z,100079.69
2024-03-08T16:58:42.445Z,100081.48
2024-03-08T17:01:09.585Z,100077.63
2024-03-08T17:03:44.912Z,100082.24
2024-03-08T17:06:21.456Z,100079.44
2024-03-08T17:08:48.319Z,100076.28
2024-03-08T17:11:17.621Z,100077.91
2024-03-08T17:13:47.994Z,100085.20
2024-03-08T17:16:15.930Z,100083.45
2024-03-08T17:18:44.705Z,100083.31
2024-03-08T17:21:14.163Z,100078.78
2024-03-08T17:23:41.154Z,100078.80
2024-03-08T17:26:09.164Z,100075.30
2024-03-08T17:28:39.039Z,100082.52
2024-03-08T17:31:10.296Z,100083.09
2024-03-08T17:33:37.956Z,100079.39
2024-03-08T17:36:07.871Z,100082.73
2024-03-08T17:38:34.825Z,100081.16
2024-03-08T17:41:01.826Z,100079.57
2024-03-08T17:43:28.788Z,100082.06
2024-03-08T17:45:56.176Z,100085.24
2024-03-08T17:48:23.165Z,100085.44
2024-03-08T17:50:50.606Z,100086.50
2024-03-08T17:53:19.166Z,100081.59
2024-03-08T17:55:46.581Z,100084.59
2024-03-08T17:58:15.665Z,100082.66
2024-03-08T18:00:44.028Z,100080.38
2024-03-08T18:03:13.216Z,100081.09
2024-03-08T18:05:44.111Z,100079.86
2024-03-08T18:08:11.737Z,100080.77
2024-03-08T18:10:38.803Z,100085.71
2024-03-08T18:13:16.671Z,100083.44
2024-03-08T18:15:44.213Z,100082.91
2024-03-08T18:18:11.740Z,100079.05
2024-03-08T18:20:45.615Z,100081.70
2024-03-08T18:23:14.097Z,100082.95
2024-03-08T18:25:40.854Z,100082.77
2024-03-08T18:28:09.032Z,100082.96
2024-03-08T18:30:39.511Z,100084.91
2024-03-08T18:33:49.502Z,100092.27
2024-03-08T18:36:17.164Z,100082.46
2024-03-08T18:38:46.531Z,100080.31
2024-03-08T18:41:16.254Z,100077.15
2024-03-08T18:43:43.946Z,100079.98
2024-03-08T18:46:13.572Z,100079.80
2024-03-08T18:48:41.185Z,100079.27
2024-03-08T18:51:08.856Z,100079.64
2024-03-08T18:53:42.106Z,100078.06
2024-03-08T18:56:10.337Z,100074.35
2024-03-08T18:58:43.145Z,100080.70
2024-03-08T19:01:14.462Z,100083.52
2024-03-08T19:03:43.352Z,100078.59
2024-03-08T19:06:11.716Z,100079.64
2024-03-08T19:08:39.332Z,100078.60
2024-03-08T19:11:06.969Z,100080.88
2024-03-08T19:13:34.682Z,100083.17
2024-03-08T19:16:02.413Z,100085.82
2024-03-08T19:18:31.252Z,100078.06
2024-03-08T19:20:59.962Z,100081.77
2024-03-08T19:23:30.798Z,100080.54
2024-03-08T19:25:58.803Z,100080.89
2024-03-08T19:28:26.747Z,100077.71
2024-03-08T19:30:55.937Z,100074.70
2024-03-08T19:33:23.577Z,100078.07
2024-03-08T19:35:51.170Z,100076.30
2024-03-08T19:38:18.825Z,100076.13
2024-03-08T19:40:47.303Z,100079.11
2024-03-08T19:43:16.805Z,100078.94
2024-03-08T19:45:45.959Z,100080.88
2024-03-08T19:48:22.193Z,100074.36
2024-03-08T19:50:51.154Z,100071.02
2024-03-08T19:53:19.491Z,100070.48
2024-03-08T19:55:52.005Z,100071.19
2024-03-08T19:58:21.993Z,100068.72
2024-03-08T20:00:50.709Z,100067.31
2024-03-08T20:03:23.684Z,100070.29
2024-03-08T20:05:56.558Z,100068.89
2024-03-08T20:08:29.444Z,100066.07
2024-03-08T20:11:00.344Z,100065.70
2024-03-08T20:13:27.882Z,100069.41
2024-03-08T20:15:55.838Z,100060.27
2024-03-08T20:18:28.040Z,100060.61
2024-03-08T20:20:56.993Z,100066.59
2024-03-08T20:23:25.565Z,100065.36
2024-03-08T20:25:53.531Z,100065.20
2024-03-08T20:28:21.706Z,100064.31
2024-03-08T20:30:49.533Z,100064.84
2024-03-08T20:33:17.584Z,100062.73
2024-03-08T20:35:51.557Z,100066.60
2024-03-08T20:38:23.576Z,100067.99
2024-03-08T20:40:53.619Z,100069.05
2024-03-08T20:43:23.385Z,100068.51
2024-03-08T20:45:51.639Z,100069.04
2024-03-08T20:48:22.321Z,100067.44
2024-03-08T20:50:52.167Z,100064.26
2024-03-08T20:53:21.189Z,100063.36
2024-03-08T20:55:50.676Z,100063.35
2024-03-08T20:58:20.269Z,100062.65
2024-03-08T21:01:10.347Z,100058.95
2024-03-08T21:03:39.354Z,100060.34
2024-03-08T21:06:09.044Z,100058.77
2024-03-08T21:08:39.817Z,100061.56
2024-03-08T21:11:08.155Z,100059.09
2024-03-08T21:13:37.462Z,100058.17
2024-03-08T21:16:07.048Z,100054.98
2024-03-08T21:18:34.806Z,100056.77
2024-03-08T21:21:04.803Z,100057.42
2024-03-08T21:23:33.556Z,100050.73
2024-03-08T21:26:02.932Z,100055.47
2024-03-08T21:28:31.309Z,100059.49
2024-03-08T21:31:02.287Z,100053.16
2024-03-08T21:33:30.477Z,100050.86
2024-03-08T21:36:00.698Z,100053.30
2024-03-08T21:38:28.544Z,100051.20
2024-03-08T21:41:02.745Z,100051.02
2024-03-08T21:43:36.285Z,100051.20
2024-03-08T21:54:07.546Z,100047.17
2024-03-08T21:56:36.167Z,100050.50
2024-03-08T21:59:04.933Z,100051.90
2024-03-08T22:01:32.960Z,100051.02
2024-03-08T22:04:00.796Z,100051.54
2024-03-08T22:06:27.952Z,100058.04
2024-03-08T22:08:54.669Z,100055.92
2024-03-08T22:11:21.596Z,100053.11
2024-03-08T22:13:48.958Z,100050.96
2024-03-08T22:16:15.817Z,100048.87
2024-03-08T22:18:42.758Z,100049.39
2024-03-08T22:21:09.458Z,100048.33
2024-03-08T22:23:37.175Z,100049.54
2024-03-08T22:26:09.602Z,100051.80
2024-03-08T22:28:36.322Z,100049.85
2024-03-08T22:31:07.127Z,100049.33
2024-03-08T22:33:34.490Z,100050.55
2024-03-08T22:36:01.357Z,100052.48
2024-03-08T22:38:27.961Z,100051.95
2024-03-08T22:40:54.935Z,100052.98
2024-03-08T22:43:22.691Z,100051.75
2024-03-08T22:45:50.383Z,100051.21
2024-03-08T22:48:17.209Z,100049.96
2024-03-08T22:50:43.844Z,100050.15
2024-03-08T22:53:14.082Z,100053.98
2024-03-08T22:55:43.766Z,100054.15
2024-03-08T22:58:10.717Z,100051.86
2024-03-08T23:00:40.172Z,100053.09
2024-03-08T23:03:10.620Z,100056.05
2024-03-08T23:05:44.496Z,100056.58
2024-03-08T23:08:11.647Z,100052.52
2024-03-08T23:10:40.800Z,100052.19
2024-03-08T23:13:10.090Z,100053.59
2024-03-08T23:15:42.168Z,100049.73
2024-03-08T23:18:12.304Z,100047.63
2024-03-08T23:20:43.059Z,100049.21
2024-03-08T23:23:13.285Z,100053.06
2024-03-08T23:25:40.999Z,100053.59
2024-03-08T23:28:09.032Z,100051.11
2024-03-08T23:30:40.241Z,100052.33
2024-03-08T23:33:12.870Z,100050.92
2024-03-08T23:35:41.508Z,100050.20
2024-03-08T23:38:08.278Z,100043.52
2024-03-08T23:40:35.136Z,100044.38
2024-03-08T23:43:01.812Z,100043.67
2024-03-08T23:45:30.748Z,100044.34
2024-03-08T23:48:00.108Z,100043.44
2024-03-08T23:50:30.557Z,100042.53
2024-03-08T23:53:02.023Z,100043.38
2024-03-08T23:55:30.808Z,100045.80
2024-03-08T23:57:58.626Z,100041.52
